Flight Track Log - Related Links

Times and Time Zones

All times are in EDT time to prevent confusion due to time zone crossing. See the SWA1377 flight status page for this flight to view local times or setup timezone preferences in your user account.

Time Position Orientation Groundspeed Altitude Reporting Facility
EDT Latitude Longitude Course Direction KTS MPH feet Rate Location/Type
Thu 11:53:56 AM 41.7500 -87.7000 109° East 236 272 3,300  Level Chicago TRACON
Thu 11:54:57 AM 41.7572 -87.6103 84° East 275 316 6,000 3,295 Climbing Chicago Center
Thu 11:55:58 AM 41.7594 -87.4878 90° East 317 365 10,000 3,787 Climbing Chicago Center
Thu 11:56:00 AM 41.7667 -87.4481 90° East  Level FlightAware Approximate
Thu 11:56:59 AM 41.7600 -87.3611 90° East 336 387 13,700  Level Chicago Center
Thu 11:58:00 AM 41.7603 -87.2311 90° East 346 398 17,000 3,148 Climbing Chicago Center
Thu 11:59:01 AM 41.7617 -87.0928 89° East 364 419 20,100 2,705 Climbing Chicago Center
Thu 12:00:02 PM 41.7628 -86.9058 89° East 413 475 22,500 2,190 Climbing Chicago Center
Thu 12:01:07 PM 41.7639 -86.7417 89° East 435 501 24,700 2,143 Climbing Chicago Center
Thu 12:02:08 PM 41.7647 -86.5614 90° East 456 525 27,000 2,016 Climbing Chicago Center
Thu 12:03:09 PM 41.7664 -86.3844 89° East 471 542 28,800 1,721 Climbing Chicago Center
Thu 12:04:10 PM 41.7881 -86.2011 81° East 496 571 30,500 1,820 Climbing Chicago Center
Thu 12:05:11 PM 41.8208 -86.0156 77° East 509 586 32,500 2,244 Climbing Chicago Center
Thu 12:06:13 PM 41.8522 -85.8308 77° East 507 583 35,100 1,902 Climbing Chicago Center
Thu 12:07:14 PM 41.8839 -85.6500 77° East 497 572 36,400 1,279 Climbing Chicago Center
Thu 12:08:15 PM 41.9153 -85.4633 77° East 502 578 37,700 1,400 Climbing Chicago Center
Thu 12:09:14 PM 41.9472 -85.2797 77° East 506 582 39,200 1,261 Climbing Cleveland Center
Thu 12:10:14 PM 41.9553 -85.0792 87° East 500 575 40,200 900 Climbing Cleveland Center
Thu 12:11:14 PM 41.9542 -84.8892 90° East 495 570 41,000 400 Climbing Cleveland Center
Thu 12:12:14 PM 41.9503 -84.7072 92° East 495 570 41,000  Level Cleveland Center
Thu 12:13:14 PM 41.9508 -84.5203 90° East 495 570 41,000  Level Cleveland Center
Thu 12:14:14 PM 41.9486 -84.3358 91° East 500 575 41,000  Level Cleveland Center
Thu 12:15:14 PM 41.9433 -84.1733 92° East 495 570 41,000  Level Cleveland Center
Thu 12:16:14 PM 41.9386 -83.9889 92° East 495 570 41,000  Level Cleveland Center
Thu 12:17:14 PM 41.9375 -83.8044 90° East 495 570 41,000 -400 Level Cleveland Center
Thu 12:18:14 PM 41.9328 -83.6033 92° East 495 570 40,200 -850 Descending Cleveland Center
Thu 12:19:14 PM 41.9328 -83.4386 90° East 500 575 39,300 -900 Descending Cleveland Center
Thu 12:20:14 PM 41.9331 -83.2544 90° East 494 568 38,400 -1,100 Descending Cleveland Center
Thu 12:21:14 PM 41.9292 -83.0478 91° East 494 568 37,100 -1,450 Descending Cleveland Center
Thu 12:22:14 PM 41.9289 -82.8661 90° East 494 568 35,500 -1,450 Descending Cleveland Center
Thu 12:23:14 PM 41.9281 -82.6847 90° East 494 568 34,200 -1,400 Descending Cleveland Center
Thu 12:24:14 PM 41.9250 -82.5144 91° East 477 549 32,700 -1,800 Descending Cleveland Center
Thu 12:25:14 PM 41.9256 -82.3469 90° East 455 524 30,600 -2,650 Descending Cleveland Center
Thu 12:26:14 PM 41.9197 -82.1794 93° East 449 517 27,400 -1,800 Descending Cleveland Center
Thu 12:27:14 PM 41.9178 -82.0036 91° East 459 528 27,000 -200 Descending Cleveland Center
Thu 12:28:14 PM 41.9219 -81.8250 88° East 464 534 27,000  Level Cleveland Center
Thu 12:29:14 PM 41.9592 -81.6525 74° East 473 544 27,000  Level Cleveland Center
Thu 12:30:14 PM 41.9981 -81.4800 73° East 473 544 27,000  Level Cleveland Center
Thu 12:31:14 PM 42.0367 -81.3239 72° East 478 550 27,000 -50 Level Cleveland Center
Thu 12:32:14 PM 42.0775 -81.1511 72° East 478 550 26,900 -550 Descending Cleveland Center
Thu 12:33:14 PM 42.1156 -80.9750 74° East 488 562 25,900 -1,000 Descending Cleveland Center
Thu 12:34:14 PM 42.1517 -80.7933 75° East 488 562 24,900 -1,050 Descending Cleveland Center
Thu 12:35:14 PM 42.2100 -80.6336 64° Northeast 464 534 23,800 -1,150 Descending Cleveland Center
Thu 12:36:14 PM 42.2975 -80.4906 50° Northeast 459 528 22,600 -1,400 Descending Cleveland Center
Thu 12:37:14 PM 42.3725 -80.3694 50° Northeast 431 496 21,000 -1,700 Descending Cleveland Center
Thu 12:38:14 PM 42.4453 -80.2539 49° Northeast 413 475 19,200 -1,700 Descending Cleveland Center
Thu 12:39:14 PM 42.5072 -80.1353 55° Northeast 402 463 17,600 -1,650 Descending Cleveland Center
Thu 12:40:14 PM 42.5525 -80.0025 65° Northeast 383 441 15,900 -1,550 Descending Cleveland Center
Thu 12:41:14 PM 42.5894 -79.8811 68° East 383 441 14,500 -1,400 Descending Cleveland Center
Thu 12:42:14 PM 42.6281 -79.7508 68° East 376 433 13,100 -1,600 Descending Cleveland Center
Thu 12:43:14 PM 42.6647 -79.6289 68° East 364 419 11,300 -1,050 Descending Cleveland Center
Thu 12:44:14 PM 42.7053 -79.5067 66° East 354 407 11,000 -150 Descending Cleveland Center
Thu 12:45:14 PM 42.7417 -79.3844 68° East 349 402 11,000  Level Cleveland Center
Thu 12:46:14 PM 42.7800 -79.2622 67° East 349 402 11,000 -700 Level Cleveland Center
Thu 12:47:14 PM 42.8200 -79.1283 68° East 349 402 9,600 -1,400 Descending Cleveland Center
Thu 12:48:14 PM 42.8497 -79.0228 69° East 338 389 8,200 -1,500 Descending Cleveland Center
Thu 12:49:14 PM 42.9153 -78.9247 48° Northeast 316 364 6,600 -1,611 Descending Cleveland Center
Thu 12:50:02 PM 42.9667 -78.8500 47° Northeast 320 368 5,300 -1,056 Descending Buffalo TRACON
Thu 12:51:02 PM 43.0333 -78.7833 36° Northeast 299 344 4,700 -500 Descending Buffalo TRACON
Thu 12:52:02 PM 43.0500 -78.7000 75° East 211 243 4,300 -850 Descending Buffalo TRACON
Thu 12:53:02 PM 43.0333 -78.6500 114° Southeast 116 133 3,000 -1,150 Descending Buffalo TRACON
Thu 12:54:02 PM 43.0000 -78.6500 180° South 108 124 2,000 -800 Descending Buffalo TRACON
Thu 12:55:02 PM 42.9667 -78.6833 216° Southwest 131 151 1,400 -600 Descending Buffalo TRACON

Login

Don't have an account? Register now (free) for customized features, flight alerts, and more!